sensor_id;sensor_type;location;lat;lon;timestamp;pressure;altitude;pressure_sealevel;temperature;humidity
53868;BME280;41577;47.470;19.080;2022-11-20T00:00:03;99873.09;;;1.19;100.00
53868;BME280;41577;47.470;19.080;2022-11-20T00:00:20;99875.75;;;1.19;100.00
53868;BME280;41577;47.470;19.080;2022-11-20T00:00:34;99869.63;;;1.18;100.00
53868;BME280;41577;47.470;19.080;2022-11-20T00:00:49;99873.22;;;1.17;100.00
53868;BME280;41577;47.470;19.080;2022-11-20T00:01:06;99872.25;;;1.18;100.00
53868;BME280;41577;47.470;19.080;2022-11-20T00:01:22;99869.63;;;1.18;100.00
53868;BME280;41577;47.470;19.080;2022-11-20T00:01:36;99869.63;;;1.18;100.00
53868;BME280;41577;47.470;19.080;2022-11-20T00:01:50;99870.47;;;1.19;100.00
53868;BME280;41577;47.470;19.080;2022-11-20T00:02:03;99869.50;;;1.20;100.00
53868;BME280;41577;47.470;19.080;2022-11-20T00:02:17;99863.41;;;1.19;100.00
53868;BME280;41577;47.470;19.080;2022-11-20T00:02:30;99872.13;;;1.20;100.00
53868;BME280;41577;47.470;19.080;2022-11-20T00:02:44;99868.53;;;1.21;100.00
53868;BME280;41577;47.470;19.080;2022-11-20T00:02:58;99863.28;;;1.21;100.00
53868;BME280;41577;47.470;19.080;2022-11-20T00:03:12;99865.91;;;1.21;100.00
53868;BME280;41577;47.470;19.080;2022-11-20T00:03:26;99866.88;;;1.20;100.00
53868;BME280;41577;47.470;19.080;2022-11-20T00:03:40;99866.03;;;1.19;100.00
53868;BME280;41577;47.470;19.080;2022-11-20T00:03:55;99868.66;;;1.19;100.00
53868;BME280;41577;47.470;19.080;2022-11-20T00:04:10;99862.44;;;1.20;100.00
53868;BME280;41577;47.470;19.080;2022-11-20T00:04:24;99859.78;;;1.20;100.00
53868;BME280;41577;47.470;19.080;2022-11-20T00:04:38;99858.84;;;1.21;100.00
53868;BME280;41577;47.470;19.080;2022-11-20T00:04:52;99861.47;;;1.21;100.00
53868;BME280;41577;47.470;19.080;2022-11-20T00:05:08;99865.06;;;1.20;100.00
53868;BME280;41577;47.470;19.080;2022-11-20T00:05:23;99860.78;;;1.19;100.00
53868;BME280;41577;47.470;19.080;2022-11-20T00:05:37;99866.03;;;1.19;100.00
53868;BME280;41577;47.470;19.080;2022-11-20T00:05:51;99867.00;;;1.18;100.00
53868;BME280;41577;47.470;19.080;2022-11-20T00:06:06;99866.16;;;1.18;100.00
53868;BME280;41577;47.470;19.080;2022-11-20T00:06:21;99860.91;;;1.18;100.00
53868;BME280;41577;47.470;19.080;2022-11-20T00:06:35;99870.72;;;1.16;100.00
53868;BME280;41577;47.470;19.080;2022-11-20T00:06:49;99864.66;;;1.15;100.00
53868;BME280;41577;47.470;19.080;2022-11-20T00:07:03;99860.22;;;1.16;100.00
53868;BME280;41577;47.470;19.080;2022-11-20T00:07:16;99862.16;;;1.14;100.00
53868;BME280;41577;47.470;19.080;2022-11-20T00:07:32;99865.75;;;1.13;100.00
53868;BME280;41577;47.470;19.080;2022-11-20T00:07:46;99861.47;;;1.12;100.00
53868;BME280;41577;47.470;19.080;2022-11-20T00:08:00;99863.13;;;1.13;100.00
53868;BME280;41577;47.470;19.080;2022-11-20T00:08:14;99860.50;;;1.13;100.00
53868;BME280;41577;47.470;19.080;2022-11-20T00:08:28;99862.31;;;1.12;100.00
53868;BME280;41577;47.470;19.080;2022-11-20T00:08:42;99862.16;;;1.14;100.00
53868;BME280;41577;47.470;19.080;2022-11-20T00:08:59;99861.31;;;1.13;100.00
53868;BME280;41577;47.470;19.080;2022-11-20T00:09:13;99864.78;;;1.14;100.00
53868;BME280;41577;47.470;19.080;2022-11-20T00:09:27;99862.16;;;1.14;100.00
53868;BME280;41577;47.470;19.080;2022-11-20T00:09:41;99870.72;;;1.16;100.00
53868;BME280;41577;47.470;19.080;2022-11-20T00:09:55;99866.47;;;1.15;100.00
53868;BME280;41577;47.470;19.080;2022-11-20T00:10:09;99866.47;;;1.15;100.00
53868;BME280;41577;47.470;19.080;2022-11-20T00:10:23;99864.66;;;1.15;100.00
53868;BME280;41577;47.470;19.080;2022-11-20T00:10:37;99855.78;;;1.16;100.00
53868;BME280;41577;47.470;19.080;2022-11-20T00:10:51;99868.09;;;1.16;100.00
53868;BME280;41577;47.470;19.080;2022-11-20T00:11:05;99870.59;;;1.17;100.00
53868;BME280;41577;47.470;19.080;2022-11-20T00:11:22;99867.97;;;1.17;100.00
53868;BME280;41577;47.470;19.080;2022-11-20T00:11:35;99870.59;;;1.17;100.00
53868;BME280;41577;47.470;19.080;2022-11-20T00:11:50;99867.16;;;1.17;100.00
53868;BME280;41577;47.470;19.080;2022-11-20T00:12:04;99873.22;;;1.17;100.00
53868;BME280;41577;47.470;19.080;2022-11-20T00:12:18;99871.56;;;1.16;100.00
53868;BME280;41577;47.470;19.080;2022-11-20T00:12:32;99867.16;;;1.17;100.00
53868;BME280;41577;47.470;19.080;2022-11-20T00:12:46;99869.78;;;1.17;100.00
53868;BME280;41577;47.470;19.080;2022-11-20T00:13:00;99871.44;;;1.18;100.00
53868;BME280;41577;47.470;19.080;2022-11-20T00:13:14;99867.97;;;1.17;100.00
53868;BME280;41577;47.470;19.080;2022-11-20T00:13:29;99866.03;;;1.19;100.00
53868;BME280;41577;47.470;19.080;2022-11-20T00:13:43;99868.53;;;1.21;100.00
53868;BME280;41577;47.470;19.080;2022-11-20T00:13:58;99867.69;;;1.20;100.00
53868;BME280;41577;47.470;19.080;2022-11-20T00:14:12;99866.88;;;1.20;100.00
53868;BME280;41577;47.470;19.080;2022-11-20T00:14:26;99865.91;;;1.21;100.00
53868;BME280;41577;47.470;19.080;2022-11-20T00:14:40;99873.09;;;1.19;100.00
53868;BME280;41577;47.470;19.080;2022-11-20T00:14:54;99866.03;;;1.19;100.00
53868;BME280;41577;47.470;19.080;2022-11-20T00:15:09;99873.94;;;1.19;100.00
53868;BME280;41577;47.470;19.080;2022-11-20T00:15:23;99868.66;;;1.19;100.00
53868;BME280;41577;47.470;19.080;2022-11-20T00:15:36;99873.94;;;1.19;100.00
53868;BME280;41577;47.470;19.080;2022-11-20T00:15:56;99869.50;;;1.20;100.00
53868;BME280;41577;47.470;19.080;2022-11-20T00:16:12;99867.84;;;1.19;100.00
53868;BME280;41577;47.470;19.080;2022-11-20T00:16:28;99870.47;;;1.19;100.00
53868;BME280;41577;47.470;19.080;2022-11-20T00:16:43;99863.41;;;1.19;100.00
53868;BME280;41577;47.470;19.080;2022-11-20T00:16:56;99867.97;;;1.17;100.00
53868;BME280;41577;47.470;19.080;2022-11-20T00:17:10;99871.44;;;1.18;100.00
53868;BME280;41577;47.470;19.080;2022-11-20T00:17:24;99870.59;;;1.17;100.00
53868;BME280;41577;47.470;19.080;2022-11-20T00:17:37;99871.56;;;1.16;100.00
53868;BME280;41577;47.470;19.080;2022-11-20T00:17:51;99868.09;;;1.16;100.00
53868;BME280;41577;47.470;19.080;2022-11-20T00:18:05;99868.09;;;1.16;100.00
53868;BME280;41577;47.470;19.080;2022-11-20T00:18:19;99867.28;;;1.15;100.00
53868;BME280;41577;47.470;19.080;2022-11-20T00:18:34;99870.91;;;1.14;100.00
53868;BME280;41577;47.470;19.080;2022-11-20T00:18:48;99873.38;;;1.16;100.00
53868;BME280;41577;47.470;19.080;2022-11-20T00:19:02;99867.28;;;1.15;100.00
53868;BME280;41577;47.470;19.080;2022-11-20T00:19:15;99874.19;;;1.16;100.00
53868;BME280;41577;47.470;19.080;2022-11-20T00:19:29;99870.72;;;1.16;100.00
53868;BME280;41577;47.470;19.080;2022-11-20T00:19:43;99880.44;;;1.15;100.00
53868;BME280;41577;47.470;19.080;2022-11-20T00:19:56;99878.63;;;1.16;100.00
53868;BME280;41577;47.470;19.080;2022-11-20T00:20:13;99880.44;;;1.15;100.00
53868;BME280;41577;47.470;19.080;2022-11-20T00:20:27;99879.59;;;1.15;100.00
53868;BME280;41577;47.470;19.080;2022-11-20T00:20:41;99878.91;;;1.13;100.00
53868;BME280;41577;47.470;19.080;2022-11-20T00:21:00;99878.91;;;1.13;100.00
53868;BME280;41577;47.470;19.080;2022-11-20T00:21:15;99873.66;;;1.13;100.00
53868;BME280;41577;47.470;19.080;2022-11-20T00:21:30;99882.38;;;1.13;100.00
53868;BME280;41577;47.470;19.080;2022-11-20T00:21:44;99874.47;;;1.13;100.00
53868;BME280;41577;47.470;19.080;2022-11-20T00:21:58;99876.81;;;1.16;100.00
53868;BME280;41577;47.470;19.080;2022-11-20T00:22:11;99880.31;;;1.17;100.00
53868;BME280;41577;47.470;19.080;2022-11-20T00:22:25;99875.16;;;1.15;100.00
53868;BME280;41577;47.470;19.080;2022-11-20T00:22:38;99881.41;;;1.14;100.00
53868;BME280;41577;47.470;19.080;2022-11-20T00:22:52;99880.72;;;1.12;100.00
53868;BME280;41577;47.470;19.080;2022-11-20T00:23:06;99883.47;;;1.11;100.00
53868;BME280;41577;47.470;19.080;2022-11-20T00:23:20;99884.16;;;1.13;100.00
53868;BME280;41577;47.470;19.080;2022-11-20T00:23:34;99885.13;;;1.12;100.00
53868;BME280;41577;47.470;19.080;2022-11-20T00:23:48;99893.16;;;1.10;100.00
53868;BME280;41577;47.470;19.080;2022-11-20T00:24:02;99883.47;;;1.11;100.00
53868;BME280;41577;47.470;19.080;2022-11-20T00:24:16;99884.47;;;1.10;100.00
53868;BME280;41577;47.470;19.080;2022-11-20T00:24:30;99891.50;;;1.09;100.00
53868;BME280;41577;47.470;19.080;2022-11-20T00:24:45;99894.97;;;1.10;100.00
53868;BME280;41577;47.470;19.080;2022-11-20T00:25:00;99895.63;;;1.12;100.00
53868;BME280;41577;47.470;19.080;2022-11-20T00:25:15;99895.63;;;1.12;100.00
53868;BME280;41577;47.470;19.080;2022-11-20T00:25:29;99896.63;;;1.11;100.00
53868;BME280;41577;47.470;19.080;2022-11-20T00:25:42;99896.50;;;1.12;100.00
53868;BME280;41577;47.470;19.080;2022-11-20T00:25:56;99907.00;;;1.12;100.00
53868;BME280;41577;47.470;19.080;2022-11-20T00:26:13;99900.91;;;1.12;100.00
53868;BME280;41577;47.470;19.080;2022-11-20T00:26:28;99907.84;;;1.13;100.00
53868;BME280;41577;47.470;19.080;2022-11-20T00:26:42;99909.47;;;1.14;100.00
53868;BME280;41577;47.470;19.080;2022-11-20T00:26:56;99899.94;;;1.13;100.00
53868;BME280;41577;47.470;19.080;2022-11-20T00:27:09;99903.53;;;1.12;100.00
53868;BME280;41577;47.470;19.080;2022-11-20T00:27:24;99907.00;;;1.12;100.00
53868;BME280;41577;47.470;19.080;2022-11-20T00:27:37;99909.47;;;1.14;100.00
53868;BME280;41577;47.470;19.080;2022-11-20T00:27:51;99912.13;;;1.14;100.00
53868;BME280;41577;47.470;19.080;2022-11-20T00:28:06;99907.72;;;1.14;100.00
53868;BME280;41577;47.470;19.080;2022-11-20T00:28:20;99907.84;;;1.13;100.00
53868;BME280;41577;47.470;19.080;2022-11-20T00:28:34;99906.16;;;1.12;100.00
53868;BME280;41577;47.470;19.080;2022-11-20T00:28:49;99906.16;;;1.12;100.00
53868;BME280;41577;47.470;19.080;2022-11-20T00:29:03;99899.13;;;1.12;100.00
53868;BME280;41577;47.470;19.080;2022-11-20T00:29:17;99901.88;;;1.11;100.00
53868;BME280;41577;47.470;19.080;2022-11-20T00:29:32;99900.91;;;1.12;100.00
53868;BME280;41577;47.470;19.080;2022-11-20T00:29:46;99903.53;;;1.12;100.00
53868;BME280;41577;47.470;19.080;2022-11-20T00:30:00;99903.53;;;1.12;100.00
53868;BME280;41577;47.470;19.080;2022-11-20T00:30:13;99900.91;;;1.12;100.00
53868;BME280;41577;47.470;19.080;2022-11-20T00:30:27;99899.25;;;1.11;100.00
53868;BME280;41577;47.470;19.080;2022-11-20T00:30:41;99896.63;;;1.11;100.00
53868;BME280;41577;47.470;19.080;2022-11-20T00:31:00;99900.22;;;1.10;100.00
53868;BME280;41577;47.470;19.080;2022-11-20T00:31:15;99893.28;;;1.09;100.00
53868;BME280;41577;47.470;19.080;2022-11-20T00:31:29;99895.09;;;1.08;100.00
53868;BME280;41577;47.470;19.080;2022-11-20T00:31:43;99886.22;;;1.09;100.00
53868;BME280;41577;47.470;19.080;2022-11-20T00:31:57;99889.03;;;1.08;100.00
53868;BME280;41577;47.470;19.080;2022-11-20T00:32:11;99889.72;;;1.10;100.00
53868;BME280;41577;47.470;19.080;2022-11-20T00:32:24;99890.66;;;1.09;100.00
53868;BME280;41577;47.470;19.080;2022-11-20T00:32:38;99889.72;;;1.10;100.00
53868;BME280;41577;47.470;19.080;2022-11-20T00:32:52;99886.66;;;1.14;100.00
53868;BME280;41577;47.470;19.080;2022-11-20T00:33:06;99890.38;;;1.12;100.00
53868;BME280;41577;47.470;19.080;2022-11-20T00:33:20;99892.19;;;1.11;100.00
53868;BME280;41577;47.470;19.080;2022-11-20T00:33:34;99892.34;;;1.10;100.00
53868;BME280;41577;47.470;19.080;2022-11-20T00:33:48;99892.47;;;1.08;100.00
53868;BME280;41577;47.470;19.080;2022-11-20T00:34:01;99888.16;;;1.07;100.00
53868;BME280;41577;47.470;19.080;2022-11-20T00:34:15;99892.47;;;1.08;100.00
53868;BME280;41577;47.470;19.080;2022-11-20T00:34:28;99893.59;;;1.06;100.00
53868;BME280;41577;47.470;19.080;2022-11-20T00:34:42;99894.53;;;1.04;100.00
53868;BME280;41577;47.470;19.080;2022-11-20T00:34:56;99903.41;;;1.03;100.00
53868;BME280;41577;47.470;19.080;2022-11-20T00:35:12;99906.97;;;1.02;100.00
53868;BME280;41577;47.470;19.080;2022-11-20T00:35:26;99903.41;;;1.03;100.00
53868;BME280;41577;47.470;19.080;2022-11-20T00:35:39;99910.31;;;1.04;100.00
53868;BME280;41577;47.470;19.080;2022-11-20T00:35:56;99908.66;;;1.03;100.00
53868;BME280;41577;47.470;19.080;2022-11-20T00:36:13;99912.94;;;1.04;100.00
53868;BME280;41577;47.470;19.080;2022-11-20T00:36:28;99912.13;;;1.04;100.00
53868;BME280;41577;47.470;19.080;2022-11-20T00:36:42;99913.78;;;1.05;100.00
53868;BME280;41577;47.470;19.080;2022-11-20T00:36:56;99913.50;;;1.08;100.00
53868;BME280;41577;47.470;19.080;2022-11-20T00:37:10;99916.69;;;1.12;100.00
53868;BME280;41577;47.470;19.080;2022-11-20T00:37:24;99913.91;;;1.13;100.00
53868;BME280;41577;47.470;19.080;2022-11-20T00:37:38;99918.34;;;1.13;100.00
53868;BME280;41577;47.470;19.080;2022-11-20T00:37:52;99921.13;;;1.11;100.00
53868;BME280;41577;47.470;19.080;2022-11-20T00:38:06;99910.75;;;1.10;100.00
53868;BME280;41577;47.470;19.080;2022-11-20T00:38:21;99920.28;;;1.11;100.00
53868;BME280;41577;47.470;19.080;2022-11-20T00:38:35;99917.66;;;1.11;100.00
53868;BME280;41577;47.470;19.080;2022-11-20T00:38:51;99917.66;;;1.11;100.00
53868;BME280;41577;47.470;19.080;2022-11-20T00:39:05;99918.63;;;1.10;100.00
53868;BME280;41577;47.470;19.080;2022-11-20T00:39:19;99921.41;;;1.08;100.00
53868;BME280;41577;47.470;19.080;2022-11-20T00:39:33;99926.78;;;1.07;100.00
53868;BME280;41577;47.470;19.080;2022-11-20T00:39:47;99919.59;;;1.09;100.00
53868;BME280;41577;47.470;19.080;2022-11-20T00:40:01;99914.34;;;1.09;100.00
53868;BME280;41577;47.470;19.080;2022-11-20T00:40:15;99925.53;;;1.11;100.00
53868;BME280;41577;47.470;19.080;2022-11-20T00:40:29;99922.09;;;1.10;100.00
53868;BME280;41577;47.470;19.080;2022-11-20T00:40:42;99917.78;;;1.09;100.00
53868;BME280;41577;47.470;19.080;2022-11-20T00:40:57;99929.16;;;1.10;100.00
53868;BME280;41577;47.470;19.080;2022-11-20T00:41:12;99922.22;;;1.09;100.00
53868;BME280;41577;47.470;19.080;2022-11-20T00:41:27;99915.56;;;1.04;100.00
53868;BME280;41577;47.470;19.080;2022-11-20T00:41:42;99912.81;;;1.06;100.00
53868;BME280;41577;47.470;19.080;2022-11-20T00:41:56;99915.56;;;1.04;100.00
53868;BME280;41577;47.470;19.080;2022-11-20T00:42:10;99912.13;;;1.04;100.00
53868;BME280;41577;47.470;19.080;2022-11-20T00:42:24;99913.91;;;1.03;100.00
53868;BME280;41577;47.470;19.080;2022-11-20T00:42:38;99912.25;;;1.02;100.00
53868;BME280;41577;47.470;19.080;2022-11-20T00:42:52;99907.84;;;1.03;100.00
53868;BME280;41577;47.470;19.080;2022-11-20T00:43:06;99914.88;;;1.02;100.00
53868;BME280;41577;47.470;19.080;2022-11-20T00:43:20;99904.50;;;1.01;100.00
53868;BME280;41577;47.470;19.080;2022-11-20T00:43:34;99905.47;;;1.00;100.00
53868;BME280;41577;47.470;19.080;2022-11-20T00:43:48;99902.84;;;1.00;100.00
53868;BME280;41577;47.470;19.080;2022-11-20T00:44:01;99911.56;;;1.00;100.00
53868;BME280;41577;47.470;19.080;2022-11-20T00:44:15;99894.13;;;0.99;100.00
53868;BME280;41577;47.470;19.080;2022-11-20T00:44:29;99899.25;;;1.01;100.00
53868;BME280;41577;47.470;19.080;2022-11-20T00:44:43;99894.81;;;1.01;100.00
53868;BME280;41577;47.470;19.080;2022-11-20T00:44:57;99901.88;;;1.01;100.00
53868;BME280;41577;47.470;19.080;2022-11-20T00:45:11;99897.44;;;1.01;100.00
53868;BME280;41577;47.470;19.080;2022-11-20T00:45:25;99900.06;;;1.01;100.00
53868;BME280;41577;47.470;19.080;2022-11-20T00:45:39;99901.06;;;1.00;100.00
53868;BME280;41577;47.470;19.080;2022-11-20T00:45:57;99898.13;;;1.03;100.00
53868;BME280;41577;47.470;19.080;2022-11-20T00:46:13;99895.63;;;1.02;100.00
53868;BME280;41577;47.470;19.080;2022-11-20T00:46:27;99889.56;;;1.01;100.00
53868;BME280;41577;47.470;19.080;2022-11-20T00:46:41;99892.31;;;1.00;100.00
53868;BME280;41577;47.470;19.080;2022-11-20T00:46:55;99893.00;;;1.02;100.00
53868;BME280;41577;47.470;19.080;2022-11-20T00:47:09;99890.38;;;1.02;100.00
53868;BME280;41577;47.470;19.080;2022-11-20T00:47:22;99888.88;;;0.99;100.00
53868;BME280;41577;47.470;19.080;2022-11-20T00:47:36;99892.19;;;1.01;100.00
53868;BME280;41577;47.470;19.080;2022-11-20T00:47:51;99888.56;;;1.02;100.00
53868;BME280;41577;47.470;19.080;2022-11-20T00:48:05;99888.56;;;1.02;100.00
53868;BME280;41577;47.470;19.080;2022-11-20T00:48:19;99886.09;;;1.01;100.00
53868;BME280;41577;47.470;19.080;2022-11-20T00:48:32;99893.16;;;1.00;100.00
53868;BME280;41577;47.470;19.080;2022-11-20T00:48:47;99887.91;;;1.00;100.00
53868;BME280;41577;47.470;19.080;2022-11-20T00:49:01;99890.53;;;1.00;100.00
53868;BME280;41577;47.470;19.080;2022-11-20T00:49:14;99884.44;;;1.00;100.00
53868;BME280;41577;47.470;19.080;2022-11-20T00:49:28;99888.03;;;0.99;100.00
53868;BME280;41577;47.470;19.080;2022-11-20T00:49:42;99888.03;;;0.99;100.00
53868;BME280;41577;47.470;19.080;2022-11-20T00:49:56;99898.28;;;1.02;100.00
53868;BME280;41577;47.470;19.080;2022-11-20T00:50:11;99886.94;;;1.01;100.00
53868;BME280;41577;47.470;19.080;2022-11-20T00:50:25;99880.84;;;1.01;100.00
53868;BME280;41577;47.470;19.080;2022-11-20T00:50:39;99888.72;;;1.01;100.00
53868;BME280;41577;47.470;19.080;2022-11-20T00:50:54;99885.28;;;1.00;100.00
53868;BME280;41577;47.470;19.080;2022-11-20T00:51:08;99880.97;;;0.99;100.00
53868;BME280;41577;47.470;19.080;2022-11-20T00:51:25;99885.41;;;0.99;100.00
53868;BME280;41577;47.470;19.080;2022-11-20T00:51:39;99886.22;;;0.99;100.00
53868;BME280;41577;47.470;19.080;2022-11-20T00:51:53;99885.28;;;1.00;100.00
53868;BME280;41577;47.470;19.080;2022-11-20T00:52:07;99888.16;;;0.97;100.00
53868;BME280;41577;47.470;19.080;2022-11-20T00:52:21;99884.72;;;0.97;100.00
53868;BME280;41577;47.470;19.080;2022-11-20T00:52:35;99882.91;;;0.97;100.00
53868;BME280;41577;47.470;19.080;2022-11-20T00:52:49;99885.28;;;1.00;100.00
53868;BME280;41577;47.470;19.080;2022-11-20T00:53:03;99888.03;;;0.99;100.00
53868;BME280;41577;47.470;19.080;2022-11-20T00:53:16;99884.31;;;1.01;100.00
53868;BME280;41577;47.470;19.080;2022-11-20T00:53:31;99889.56;;;1.01;100.00
53868;BME280;41577;47.470;19.080;2022-11-20T00:53:45;99891.19;;;1.02;100.00
53868;BME280;41577;47.470;19.080;2022-11-20T00:53:59;99882.66;;;1.00;100.00
53868;BME280;41577;47.470;19.080;2022-11-20T00:54:13;99880.97;;;0.99;100.00
53868;BME280;41577;47.470;19.080;2022-11-20T00:54:28;99883.72;;;0.98;100.00
53868;BME280;41577;47.470;19.080;2022-11-20T00:54:41;99882.91;;;0.97;100.00
53868;BME280;41577;47.470;19.080;2022-11-20T00:54:55;99875.03;;;0.97;100.00
53868;BME280;41577;47.470;19.080;2022-11-20T00:55:09;99881.97;;;0.98;100.00
53868;BME280;41577;47.470;19.080;2022-11-20T00:55:23;99887.06;;;1.00;100.00
53868;BME280;41577;47.470;19.080;2022-11-20T00:55:37;99885.13;;;1.02;100.00
53868;BME280;41577;47.470;19.080;2022-11-20T00:55:54;99881.66;;;1.01;100.00
53868;BME280;41577;47.470;19.080;2022-11-20T00:56:10;99885.94;;;1.02;100.00
53868;BME280;41577;47.470;19.080;2022-11-20T00:56:25;99878.22;;;1.01;100.00
53868;BME280;41577;47.470;19.080;2022-11-20T00:56:39;99887.06;;;1.00;100.00
53868;BME280;41577;47.470;19.080;2022-11-20T00:56:53;99882.66;;;1.00;100.00
53868;BME280;41577;47.470;19.080;2022-11-20T00:57:06;99880.16;;;0.99;100.00
53868;BME280;41577;47.470;19.080;2022-11-20T00:57:20;99876.81;;;0.97;100.00
53868;BME280;41577;47.470;19.080;2022-11-20T00:57:34;99884.72;;;0.97;100.00
53868;BME280;41577;47.470;19.080;2022-11-20T00:57:48;99881.09;;;0.98;100.00
53868;BME280;41577;47.470;19.080;2022-11-20T00:58:02;99879.44;;;0.97;100.00
53868;BME280;41577;47.470;19.080;2022-11-20T00:58:16;99873.50;;;0.95;100.00
53868;BME280;41577;47.470;19.080;2022-11-20T00:58:31;99884.72;;;0.97;100.00
53868;BME280;41577;47.470;19.080;2022-11-20T00:58:47;99880.28;;;0.97;100.00
53868;BME280;41577;47.470;19.080;2022-11-20T00:59:02;99879.31;;;0.98;100.00
53868;BME280;41577;47.470;19.080;2022-11-20T00:59:15;99882.66;;;1.00;100.00
53868;BME280;41577;47.470;19.080;2022-11-20T00:59:29;99886.09;;;1.01;100.00
53868;BME280;41577;47.470;19.080;2022-11-20T00:59:43;99879.16;;;1.00;100.00
53868;BME280;41577;47.470;19.080;2022-11-20T00:59:56;99885.28;;;1.00;100.00
53868;BME280;41577;47.470;19.080;2022-11-20T01:00:11;99875.72;;;0.99;100.00
53868;BME280;41577;47.470;19.080;2022-11-20T01:00:24;99872.25;;;0.99;100.00
53868;BME280;41577;47.470;19.080;2022-11-20T01:00:38;99877.66;;;0.97;100.00
53868;BME280;41577;47.470;19.080;2022-11-20T01:00:52;99875.84;;;0.98;100.00
53868;BME280;41577;47.470;19.080;2022-11-20T01:01:08;99875.03;;;0.97;100.00
53868;BME280;41577;47.470;19.080;2022-11-20T01:01:23;99877.66;;;0.97;100.00
53868;BME280;41577;47.470;19.080;2022-11-20T01:01:37;99875.84;;;0.98;100.00
53868;BME280;41577;47.470;19.080;2022-11-20T01:01:51;99876.81;;;0.97;100.00
53868;BME280;41577;47.470;19.080;2022-11-20T01:02:05;99875.03;;;0.97;100.00
53868;BME280;41577;47.470;19.080;2022-11-20T01:02:19;99875.03;;;0.97;100.00
53868;BME280;41577;47.470;19.080;2022-11-20T01:02:34;99873.38;;;0.96;100.00
53868;BME280;41577;47.470;19.080;2022-11-20T01:02:47;99877.81;;;0.96;100.00
53868;BME280;41577;47.470;19.080;2022-11-20T01:03:01;99870.88;;;0.95;100.00
53868;BME280;41577;47.470;19.080;2022-11-20T01:03:15;99870.03;;;0.94;100.00
53868;BME280;41577;47.470;19.080;2022-11-20T01:03:30;99866.59;;;0.94;100.00
53868;BME280;41577;47.470;19.080;2022-11-20T01:03:45;99871.84;;;0.94;100.00
53868;BME280;41577;47.470;19.080;2022-11-20T01:04:00;99864.91;;;0.93;100.00
53868;BME280;41577;47.470;19.080;2022-11-20T01:04:13;99872.69;;;0.94;100.00
53868;BME280;41577;47.470;19.080;2022-11-20T01:04:28;99869.22;;;0.94;100.00
53868;BME280;41577;47.470;19.080;2022-11-20T01:04:41;99867.53;;;0.93;100.00
53868;BME280;41577;47.470;19.080;2022-11-20T01:04:55;99871.00;;;0.93;100.00
53868;BME280;41577;47.470;19.080;2022-11-20T01:05:09;99869.34;;;0.92;100.00
53868;BME280;41577;47.470;19.080;2022-11-20T01:05:24;99866.72;;;0.92;100.00
53868;BME280;41577;47.470;19.080;2022-11-20T01:05:38;99874.59;;;0.92;100.00
53868;BME280;41577;47.470;19.080;2022-11-20T01:05:52;99871.97;;;0.92;100.00
53868;BME280;41577;47.470;19.080;2022-11-20T01:06:08;99874.59;;;0.92;100.00
53868;BME280;41577;47.470;19.080;2022-11-20T01:06:24;99870.47;;;0.90;100.00
53868;BME280;41577;47.470;19.080;2022-11-20T01:06:39;99869.63;;;0.89;100.00
53868;BME280;41577;47.470;19.080;2022-11-20T01:06:53;99872.38;;;0.88;100.00
53868;BME280;41577;47.470;19.080;2022-11-20T01:07:07;99874.03;;;0.89;100.00
53868;BME280;41577;47.470;19.080;2022-11-20T01:07:21;99875.72;;;0.90;100.00
53868;BME280;41577;47.470;19.080;2022-11-20T01:07:35;99879.28;;;0.89;100.00
53868;BME280;41577;47.470;19.080;2022-11-20T01:07:49;99875.72;;;0.90;100.00
53868;BME280;41577;47.470;19.080;2022-11-20T01:08:03;99875.72;;;0.90;100.00
53868;BME280;41577;47.470;19.080;2022-11-20T01:08:17;99878.34;;;0.90;100.00
53868;BME280;41577;47.470;19.080;2022-11-20T01:08:32;99883.44;;;0.91;100.00
53868;BME280;41577;47.470;19.080;2022-11-20T01:08:47;99879.03;;;0.92;100.00
53868;BME280;41577;47.470;19.080;2022-11-20T01:09:03;99880.00;;;0.91;100.00
53868;BME280;41577;47.470;19.080;2022-11-20T01:09:17;99882.63;;;0.91;100.00
53868;BME280;41577;47.470;19.080;2022-11-20T01:09:31;99881.78;;;0.90;100.00
53868;BME280;41577;47.470;19.080;2022-11-20T01:09:45;99886.94;;;0.92;100.00
53868;BME280;41577;47.470;19.080;2022-11-20T01:09:59;99884.28;;;0.92;100.00
53868;BME280;41577;47.470;19.080;2022-11-20T01:10:13;99887.75;;;0.92;100.00
53868;BME280;41577;47.470;19.080;2022-11-20T01:10:26;99884.28;;;0.92;100.00
53868;BME280;41577;47.470;19.080;2022-11-20T01:10:41;99892.03;;;0.93;100.00
53868;BME280;41577;47.470;19.080;2022-11-20T01:10:58;99884.00;;;0.95;100.00
53868;BME280;41577;47.470;19.080;2022-11-20T01:11:14;99885.81;;;0.94;100.00
53868;BME280;41577;47.470;19.080;2022-11-20T01:11:30;99884.00;;;0.95;100.00
53868;BME280;41577;47.470;19.080;2022-11-20T01:11:45;99885.81;;;0.94;100.00
53868;BME280;41577;47.470;19.080;2022-11-20T01:11:58;99886.78;;;0.93;100.00
53868;BME280;41577;47.470;19.080;2022-11-20T01:12:12;99891.19;;;0.93;100.00
53868;BME280;41577;47.470;19.080;2022-11-20T01:12:26;99885.94;;;0.93;100.00
53868;BME280;41577;47.470;19.080;2022-11-20T01:12:39;99885.00;;;0.94;100.00
53868;BME280;41577;47.470;19.080;2022-11-20T01:12:53;99889.41;;;0.93;100.00
53868;BME280;41577;47.470;19.080;2022-11-20T01:13:07;99889.16;;;0.96;100.00
53868;BME280;41577;47.470;19.080;2022-11-20T01:13:20;99888.16;;;0.97;100.00
53868;BME280;41577;47.470;19.080;2022-11-20T01:13:34;99883.06;;;0.96;100.00
53868;BME280;41577;47.470;19.080;2022-11-20T01:13:49;99890.78;;;0.97;100.00
53868;BME280;41577;47.470;19.080;2022-11-20T01:14:06;99884.84;;;0.95;100.00
53868;BME280;41577;47.470;19.080;2022-11-20T01:14:20;99891.78;;;0.96;100.00
53868;BME280;41577;47.470;19.080;2022-11-20T01:14:34;99884.13;;;0.93;100.00
53868;BME280;41577;47.470;19.080;2022-11-20T01:14:47;99891.06;;;0.94;100.00